createdAt,value
2022-09-30T00:01:59.131Z,89.02
2022-09-30T00:07:19.071Z,89.03
2022-09-30T00:09:48.070Z,88.83
2022-09-30T00:12:15.081Z,89.02
2022-09-30T00:14:43.322Z,88.86
2022-09-30T00:17:11.114Z,88.80
2022-09-30T00:19:39.130Z,88.68
2022-09-30T00:22:32.304Z,88.71
2022-09-30T00:24:59.032Z,88.75
2022-09-30T00:27:27.049Z,88.83
2022-09-30T00:30:00.166Z,88.62
2022-09-30T00:32:27.085Z,88.92
2022-09-30T00:35:22.524Z,88.91
2022-09-30T00:37:51.268Z,88.93
2022-09-30T00:40:20.514Z,88.77
2022-09-30T00:42:47.191Z,88.83
2022-09-30T00:45:18.006Z,89.02
2022-09-30T00:47:56.430Z,88.88
2022-09-30T00:50:37.735Z,88.98
2022-09-30T00:53:10.531Z,88.84
2022-09-30T00:56:03.846Z,89.14
2022-09-30T00:58:36.414Z,88.80
2022-09-30T01:01:03.465Z,88.78
2022-09-30T01:03:34.137Z,88.77
2022-09-30T01:06:02.624Z,88.85
2022-09-30T01:08:33.705Z,89.11
2022-09-30T01:13:57.185Z,88.85
2022-09-30T01:16:47.742Z,88.69
2022-09-30T01:19:23.034Z,88.43
2022-09-30T01:22:03.445Z,88.48
2022-09-30T01:25:13.955Z,88.48
2022-09-30T01:27:50.103Z,88.33
2022-09-30T01:30:35.613Z,88.53
2022-09-30T01:33:20.393Z,88.55
2022-09-30T01:35:58.268Z,88.56
2022-09-30T01:38:47.308Z,88.45
2022-09-30T01:41:28.952Z,88.48
2022-09-30T01:44:33.297Z,88.33
2022-09-30T01:47:17.587Z,88.35
2022-09-30T01:50:20.365Z,88.55
2022-09-30T01:53:08.753Z,88.22
2022-09-30T01:55:45.721Z,88.10
2022-09-30T01:58:22.651Z,88.23
2022-09-30T02:00:55.967Z,88.21
2022-09-30T02:03:35.399Z,88.26
2022-09-30T02:06:08.523Z,88.15
2022-09-30T02:08:53.259Z,88.44
2022-09-30T02:11:25.845Z,88.20
2022-09-30T02:14:17.014Z,88.49
2022-09-30T02:17:43.249Z,88.66
2022-09-30T02:20:24.214Z,88.69
2022-09-30T02:23:07.997Z,88.78
2022-09-30T02:26:15.250Z,88.89
2022-09-30T02:28:52.540Z,89.03
2022-09-30T02:31:26.032Z,89.00
2022-09-30T02:34:09.371Z,88.96
2022-09-30T02:37:26.254Z,88.77
2022-09-30T02:40:12.317Z,89.11
2022-09-30T02:42:46.314Z,89.09
2022-09-30T02:45:22.408Z,88.76
2022-09-30T02:47:57.437Z,89.14
2022-09-30T02:50:35.139Z,88.97
2022-09-30T02:53:21.889Z,88.59
2022-09-30T02:56:15.426Z,88.43
2022-09-30T02:58:43.641Z,89.31
2022-09-30T03:01:14.249Z,88.90
2022-09-30T03:04:07.956Z,89.10
2022-09-30T03:06:36.032Z,89.08
2022-09-30T03:09:09.840Z,88.84
2022-09-30T03:12:10.128Z,88.85
2022-09-30T03:14:55.386Z,89.19
2022-09-30T03:17:43.885Z,88.80
2022-09-30T03:20:19.877Z,88.88
2022-09-30T03:23:44.860Z,89.00
2022-09-30T03:26:36.234Z,88.66
2022-09-30T03:29:29.192Z,89.13
2022-09-30T03:32:42.791Z,89.31
2022-09-30T03:38:49.506Z,89.05
2022-09-30T03:41:37.424Z,89.24
2022-09-30T03:44:40.204Z,88.98
2022-09-30T03:47:11.132Z,89.11
2022-09-30T03:49:52.554Z,89.04
2022-09-30T03:52:21.658Z,89.05
2022-09-30T03:55:27.569Z,89.02
2022-09-30T03:57:55.107Z,89.01
2022-09-30T04:00:32.516Z,88.90
2022-09-30T04:03:05.018Z,88.83
2022-09-30T04:05:57.133Z,88.77
2022-09-30T04:08:25.149Z,88.64
2022-09-30T04:10:58.096Z,88.90
2022-09-30T04:13:25.035Z,89.08
2022-09-30T04:15:54.632Z,89.16
2022-09-30T04:18:48.309Z,89.12
2022-09-30T04:21:21.320Z,89.16
2022-09-30T04:23:49.499Z,89.67
2022-09-30T04:26:23.176Z,90.11
2022-09-30T04:28:52.468Z,90.25
2022-09-30T04:31:45.315Z,90.55
2022-09-30T04:34:13.080Z,90.58
2022-09-30T04:36:41.265Z,89.87
2022-09-30T04:39:09.394Z,89.86
2022-09-30T04:41:38.374Z,89.31
2022-09-30T04:44:07.896Z,89.60
2022-09-30T04:49:34.101Z,89.51
2022-09-30T04:52:01.244Z,89.38
2022-09-30T04:54:29.044Z,89.40
2022-09-30T04:56:57.077Z,89.46
2022-09-30T04:59:25.051Z,89.69
2022-09-30T05:01:57.079Z,89.62
2022-09-30T05:04:33.432Z,89.17
2022-09-30T05:07:26.848Z,89.31
2022-09-30T05:10:00.067Z,89.25
2022-09-30T05:12:27.058Z,89.53
2022-09-30T05:17:49.325Z,88.87
2022-09-30T05:20:20.923Z,89.18
2022-09-30T05:22:55.097Z,88.92
2022-09-30T05:25:32.073Z,88.89
2022-09-30T05:27:59.037Z,88.74
2022-09-30T05:30:27.274Z,88.89
2022-09-30T05:32:56.218Z,88.96
2022-09-30T05:35:30.293Z,88.67
2022-09-30T05:38:02.906Z,88.66
2022-09-30T05:40:32.163Z,88.99
2022-09-30T05:43:25.102Z,88.73
2022-09-30T05:45:57.534Z,88.49
2022-09-30T05:48:25.798Z,88.64
2022-09-30T05:50:57.784Z,88.59
2022-09-30T05:53:25.882Z,88.95
2022-09-30T05:55:53.256Z,88.86
2022-09-30T06:01:15.272Z,89.20
2022-09-30T06:03:49.460Z,88.97
2022-09-30T06:06:17.164Z,89.06
2022-09-30T06:08:45.600Z,88.94
2022-09-30T06:11:18.697Z,89.05
2022-09-30T06:13:49.923Z,89.05
2022-09-30T06:16:19.381Z,88.97
2022-09-30T06:18:47.378Z,88.99
2022-09-30T06:21:17.550Z,89.29
2022-09-30T06:23:45.098Z,89.60
2022-09-30T06:26:14.474Z,89.98
2022-09-30T06:28:42.139Z,90.65
2022-09-30T06:31:15.872Z,90.24
2022-09-30T06:33:43.325Z,89.50
2022-09-30T06:36:11.139Z,89.72
2022-09-30T06:38:50.561Z,90.50
2022-09-30T06:41:19.237Z,90.15
2022-09-30T06:43:51.499Z,90.29
2022-09-30T06:47:06.689Z,90.90
2022-09-30T06:49:48.912Z,91.12
2022-09-30T06:52:17.097Z,91.43
2022-09-30T06:55:09.350Z,91.63
2022-09-30T06:57:37.046Z,92.14
2022-09-30T07:00:05.905Z,92.18
2022-09-30T07:02:34.474Z,92.00
2022-09-30T07:05:07.501Z,92.07
2022-09-30T07:07:36.622Z,92.18
2022-09-30T07:10:05.529Z,92.04
2022-09-30T07:12:33.060Z,92.16
2022-09-30T07:15:09.210Z,92.55
2022-09-30T07:17:41.059Z,92.67
2022-09-30T07:20:09.237Z,92.51
2022-09-30T07:22:37.092Z,92.70
2022-09-30T07:25:05.512Z,92.49
2022-09-30T07:27:34.056Z,93.07
2022-09-30T07:30:09.494Z,92.73
2022-09-30T07:32:39.065Z,92.47
2022-09-30T07:35:12.559Z,92.36
2022-09-30T07:37:41.056Z,92.38
2022-09-30T07:43:01.842Z,92.66
2022-09-30T07:45:54.713Z,92.48
2022-09-30T07:48:41.933Z,92.12
2022-09-30T07:51:24.763Z,92.28
2022-09-30T07:53:55.799Z,92.29
2022-09-30T08:02:16.863Z,91.70
2022-09-30T08:04:45.345Z,92.28
2022-09-30T08:07:15.624Z,92.10
2022-09-30T08:09:43.521Z,91.73
2022-09-30T08:12:11.075Z,91.48
2022-09-30T08:14:44.070Z,91.34
2022-09-30T08:17:11.074Z,91.08
2022-09-30T08:19:41.384Z,91.06
2022-09-30T08:25:03.248Z,90.75
2022-09-30T08:27:56.979Z,89.90
2022-09-30T08:30:50.122Z,89.56
2022-09-30T08:33:45.139Z,88.82
2022-09-30T08:36:17.719Z,89.63
2022-09-30T08:42:13.903Z,89.57
2022-09-30T08:45:10.493Z,88.33
2022-09-30T08:47:56.152Z,87.40
2022-09-30T08:50:47.961Z,88.36
2022-09-30T08:53:24.113Z,86.54
2022-09-30T08:55:54.470Z,86.10
2022-09-30T08:58:36.821Z,87.25
2022-09-30T09:04:25.292Z,86.50
2022-09-30T09:07:04.036Z,85.36
2022-09-30T09:09:47.116Z,86.25
2022-09-30T09:13:02.527Z,85.77
2022-09-30T09:15:51.129Z,85.32
2022-09-30T09:18:39.721Z,83.88
2022-09-30T09:21:41.606Z,83.44
2022-09-30T09:24:27.861Z,83.25
2022-09-30T09:26:56.967Z,82.50
2022-09-30T09:29:43.384Z,84.47
2022-09-30T09:32:39.786Z,80.37
2022-09-30T09:35:15.624Z,83.83
2022-09-30T09:38:24.793Z,81.52
2022-09-30T09:44:37.824Z,82.60
2022-09-30T09:47:10.326Z,80.12
2022-09-30T09:49:41.750Z,80.99
2022-09-30T09:52:15.078Z,78.91
2022-09-30T09:54:45.481Z,80.84
2022-09-30T09:57:24.835Z,79.99
2022-09-30T10:00:42.080Z,79.37
2022-09-30T10:03:24.573Z,81.32
2022-09-30T10:06:17.064Z,80.37
2022-09-30T10:08:56.612Z,81.34
2022-09-30T10:11:36.010Z,80.45
2022-09-30T10:14:03.101Z,81.78
2022-09-30T10:16:35.483Z,79.47
2022-09-30T10:19:09.463Z,77.45
2022-09-30T10:21:37.110Z,78.97
2022-09-30T10:24:26.633Z,78.77
2022-09-30T10:26:59.106Z,78.75
2022-09-30T10:29:34.994Z,78.31
2022-09-30T10:32:07.544Z,79.39
2022-09-30T10:34:43.703Z,78.49
2022-09-30T10:37:16.149Z,78.79
2022-09-30T10:39:44.644Z,78.30
2022-09-30T10:42:35.745Z,78.48
2022-09-30T10:45:06.332Z,77.92
2022-09-30T10:47:36.980Z,78.81
2022-09-30T10:50:29.259Z,76.87
2022-09-30T10:53:04.761Z,78.06
2022-09-30T10:55:47.691Z,77.54
2022-09-30T11:01:46.571Z,78.20
2022-09-30T11:04:27.159Z,77.03
2022-09-30T11:07:02.097Z,76.48
2022-09-30T11:09:38.753Z,76.88
2022-09-30T11:15:20.483Z,75.14
2022-09-30T11:17:54.718Z,73.69
2022-09-30T11:20:44.472Z,73.28
2022-09-30T11:23:38.033Z,75.85
2022-09-30T11:26:14.153Z,74.24
2022-09-30T11:28:50.242Z,73.61
2022-09-30T11:34:38.245Z,74.06
2022-09-30T11:44:07.762Z,75.26
2022-09-30T11:46:53.338Z,74.68
2022-09-30T11:49:45.591Z,73.69
2022-09-30T11:52:35.337Z,73.72
2022-09-30T11:55:14.373Z,72.65
2022-09-30T11:57:47.995Z,74.22
2022-09-30T12:00:18.037Z,71.31
2022-09-30T12:02:54.321Z,71.04
2022-09-30T12:08:59.751Z,70.18
2022-09-30T12:11:36.097Z,70.87
2022-09-30T12:14:19.766Z,70.79
2022-09-30T12:16:48.643Z,70.81
2022-09-30T12:19:42.091Z,72.08
2022-09-30T12:22:18.001Z,69.25
2022-09-30T12:24:47.836Z,71.39
2022-09-30T12:27:41.657Z,71.67
2022-09-30T12:30:20.455Z,69.83
2022-09-30T12:33:26.198Z,71.67
2022-09-30T12:39:42.577Z,71.57
2022-09-30T12:42:48.243Z,71.00
2022-09-30T12:45:30.849Z,71.58
2022-09-30T12:48:02.863Z,72.07
2022-09-30T12:50:42.772Z,71.49
2022-09-30T12:53:22.694Z,70.59
2022-09-30T12:55:52.357Z,70.78
2022-09-30T12:58:34.164Z,71.10
2022-09-30T13:01:13.187Z,72.93
2022-09-30T13:03:53.194Z,72.30
2022-09-30T13:06:22.091Z,71.39
2022-09-30T13:09:20.854Z,72.67
2022-09-30T13:12:29.211Z,71.12
2022-09-30T13:15:30.413Z,70.24
2022-09-30T13:21:21.348Z,71.42
2022-09-30T13:23:56.263Z,70.79
2022-09-30T13:26:40.316Z,70.71
2022-09-30T13:29:35.256Z,70.05
2022-09-30T13:32:10.610Z,68.71
2022-09-30T13:35:00.629Z,69.91
2022-09-30T13:37:41.320Z,69.97
2022-09-30T13:40:50.191Z,69.87
2022-09-30T13:43:40.413Z,70.70
2022-09-30T13:46:27.316Z,68.29
2022-09-30T13:49:04.701Z,69.79
2022-09-30T13:51:46.060Z,68.80
2022-09-30T13:54:39.050Z,70.53
2022-09-30T13:57:15.481Z,72.35
2022-09-30T14:00:00.176Z,70.99
2022-09-30T14:02:45.334Z,69.82
2022-09-30T14:05:35.265Z,71.81
2022-09-30T14:08:34.825Z,70.75
2022-09-30T14:11:24.570Z,70.19
2022-09-30T14:14:42.547Z,68.60
2022-09-30T14:17:27.450Z,70.09
2022-09-30T14:20:09.244Z,69.86
2022-09-30T14:22:37.248Z,71.66
2022-09-30T14:25:22.412Z,71.79
2022-09-30T14:28:04.424Z,72.17
2022-09-30T14:31:13.016Z,71.14
2022-09-30T14:33:45.267Z,71.95
2022-09-30T14:36:19.622Z,72.08
2022-09-30T14:39:21.022Z,71.67
2022-09-30T14:41:58.519Z,72.08
2022-09-30T14:44:29.749Z,71.12
2022-09-30T14:47:22.829Z,71.19
2022-09-30T14:49:51.086Z,67.51
2022-09-30T14:52:45.333Z,71.66
2022-09-30T14:55:49.142Z,68.90
2022-09-30T14:58:26.635Z,67.24
2022-09-30T15:01:07.136Z,71.10
2022-09-30T15:03:41.989Z,71.34
2022-09-30T15:09:28.926Z,71.04
2022-09-30T15:11:59.026Z,72.63
2022-09-30T15:14:27.556Z,71.29
2022-09-30T15:17:29.782Z,71.79
2022-09-30T15:19:58.355Z,71.09
2022-09-30T15:22:27.200Z,71.73
2022-09-30T15:24:57.286Z,70.92
2022-09-30T15:27:30.086Z,71.02
2022-09-30T15:30:29.138Z,71.46
2022-09-30T15:33:02.285Z,71.59
2022-09-30T15:35:29.694Z,69.85
2022-09-30T15:38:30.208Z,71.04
2022-09-30T15:41:16.082Z,73.25
2022-09-30T15:43:51.860Z,68.65
2022-09-30T15:46:33.291Z,70.53
2022-09-30T15:49:03.447Z,69.92
2022-09-30T15:51:40.131Z,73.06
2022-09-30T15:54:20.719Z,71.52
2022-09-30T15:56:49.280Z,72.48
2022-09-30T15:59:17.039Z,73.60
2022-09-30T16:01:46.805Z,71.88
2022-09-30T16:04:18.988Z,74.27
2022-09-30T16:07:15.845Z,71.41
2022-09-30T16:09:48.413Z,71.29
2022-09-30T16:12:20.265Z,73.71
2022-09-30T16:14:59.946Z,72.22
2022-09-30T16:17:38.358Z,74.37
2022-09-30T16:20:25.314Z,75.68
2022-09-30T16:22:55.323Z,75.49
2022-09-30T16:25:49.643Z,74.39
2022-09-30T16:28:17.201Z,76.44
2022-09-30T16:30:50.364Z,75.37
2022-09-30T16:33:17.962Z,76.82
2022-09-30T16:35:47.430Z,76.14
2022-09-30T16:38:24.086Z,76.98
2022-09-30T16:40:51.095Z,77.15
2022-09-30T16:43:20.444Z,76.61
2022-09-30T16:45:50.275Z,77.22
2022-09-30T16:51:40.250Z,77.82
2022-09-30T16:54:10.363Z,78.38
2022-09-30T16:56:37.649Z,78.38
2022-09-30T16:59:13.273Z,78.13
2022-09-30T17:01:45.183Z,78.50
2022-09-30T17:04:22.103Z,78.54
2022-09-30T17:06:54.095Z,78.73
2022-09-30T17:09:21.176Z,78.97
2022-09-30T17:12:19.741Z,78.31
2022-09-30T17:14:47.130Z,79.14
2022-09-30T17:20:07.512Z,79.12
2022-09-30T17:22:35.220Z,79.31
2022-09-30T17:25:08.769Z,79.06
2022-09-30T17:27:38.310Z,79.97
2022-09-30T17:30:38.186Z,79.33
2022-09-30T17:33:11.129Z,79.67
2022-09-30T17:36:06.019Z,79.39
2022-09-30T17:38:34.097Z,80.20
2022-09-30T17:41:19.825Z,79.69
2022-09-30T17:43:47.117Z,80.11
2022-09-30T17:46:18.734Z,80.79
2022-09-30T17:48:47.997Z,80.49
2022-09-30T17:51:16.461Z,80.23
2022-09-30T17:53:44.200Z,80.47
2022-09-30T17:56:16.907Z,79.95
2022-09-30T17:58:57.720Z,80.75
2022-09-30T18:01:25.203Z,80.73
2022-09-30T18:03:53.445Z,80.83
2022-09-30T18:06:21.137Z,80.80
2022-09-30T18:08:50.438Z,80.83
2022-09-30T18:11:26.049Z,81.21
2022-09-30T18:14:00.059Z,81.24
2022-09-30T18:16:30.682Z,81.13
2022-09-30T18:19:10.131Z,81.43
2022-09-30T18:21:37.908Z,81.17
2022-09-30T18:24:06.605Z,81.10
2022-09-30T18:26:44.109Z,81.40
2022-09-30T18:29:11.029Z,80.99
2022-09-30T18:31:43.950Z,81.47
2022-09-30T18:34:13.187Z,81.43
2022-09-30T18:36:47.496Z,81.54
2022-09-30T18:39:15.546Z,81.63
2022-09-30T18:41:48.924Z,81.65
2022-09-30T18:44:17.040Z,81.99
2022-09-30T18:52:55.028Z,81.34
2022-09-30T18:55:27.943Z,82.10
2022-09-30T18:57:55.500Z,81.93
2022-09-30T19:00:23.311Z,82.40
2022-09-30T19:02:52.576Z,81.59
2022-09-30T19:05:21.625Z,81.25
2022-09-30T19:07:49.205Z,82.02
2022-09-30T19:10:22.248Z,82.29
2022-09-30T19:12:49.574Z,82.30
2022-09-30T19:18:10.411Z,82.46
2022-09-30T19:20:37.965Z,82.56
2022-09-30T19:23:08.881Z,81.53
2022-09-30T19:28:31.530Z,82.59
2022-09-30T19:31:00.456Z,82.57
2022-09-30T19:33:27.270Z,82.64
2022-09-30T19:36:14.866Z,82.66
2022-09-30T19:38:45.379Z,82.37
2022-09-30T19:41:15.809Z,82.43
2022-09-30T19:43:46.487Z,82.02
2022-09-30T19:46:26.542Z,82.64
2022-09-30T19:48:56.333Z,82.82
2022-09-30T19:51:23.812Z,82.95
2022-09-30T19:54:04.092Z,83.17
2022-09-30T19:56:35.355Z,82.88
2022-09-30T19:59:29.218Z,82.85
2022-09-30T20:01:57.473Z,82.43
2022-09-30T20:04:25.113Z,83.04
2022-09-30T20:07:17.065Z,82.70
2022-09-30T20:09:46.548Z,82.86
2022-09-30T20:12:15.085Z,83.00
2022-09-30T20:15:01.423Z,83.19
2022-09-30T20:17:29.419Z,82.87
2022-09-30T20:20:34.463Z,82.57
2022-09-30T20:23:03.527Z,82.79
2022-09-30T20:25:31.285Z,82.62
2022-09-30T20:28:23.285Z,82.84
2022-09-30T20:30:51.055Z,82.86
2022-09-30T20:33:20.615Z,82.78
2022-09-30T20:35:49.186Z,82.78
2022-09-30T20:38:29.840Z,82.92
2022-09-30T20:41:02.579Z,82.74
2022-09-30T20:43:33.074Z,82.93
2022-09-30T20:46:03.383Z,82.56
2022-09-30T20:48:33.544Z,82.78
2022-09-30T20:51:10.410Z,82.76
2022-09-30T20:53:39.714Z,81.86
2022-09-30T20:56:09.260Z,82.87
2022-09-30T20:58:45.261Z,82.83
2022-09-30T21:01:14.768Z,82.90
2022-09-30T21:03:44.819Z,82.81
2022-09-30T21:06:13.074Z,83.06
2022-09-30T21:09:22.109Z,82.76
2022-09-30T21:12:19.288Z,82.84
2022-09-30T21:14:47.091Z,82.94
2022-09-30T21:17:15.176Z,82.85
2022-09-30T21:19:47.089Z,83.07
2022-09-30T21:22:15.133Z,82.79
2022-09-30T21:24:48.121Z,82.87
2022-09-30T21:27:45.616Z,82.26
2022-09-30T21:30:13.360Z,83.31
2022-09-30T21:32:45.307Z,83.04
2022-09-30T21:35:18.087Z,83.10
2022-09-30T21:37:53.525Z,83.39
2022-09-30T21:40:21.031Z,83.13
2022-09-30T21:43:14.206Z,83.41
2022-09-30T21:48:34.283Z,82.83
2022-09-30T21:51:02.156Z,83.22
2022-09-30T21:53:29.409Z,83.36
2022-09-30T21:55:58.941Z,83.55
2022-09-30T21:58:29.020Z,83.06
2022-09-30T22:01:00.015Z,83.20
2022-09-30T22:03:30.808Z,83.38
2022-09-30T22:06:00.441Z,83.09
2022-09-30T22:08:32.919Z,82.78
2022-09-30T22:11:01.324Z,82.48
2022-09-30T22:13:29.406Z,82.98
2022-09-30T22:16:03.413Z,82.89
2022-09-30T22:21:23.549Z,83.41
2022-09-30T22:23:51.083Z,82.96
2022-09-30T22:29:35.669Z,82.92
2022-09-30T22:32:29.044Z,82.90
2022-09-30T22:35:15.453Z,82.79
2022-09-30T22:38:01.740Z,83.28
2022-09-30T22:40:29.126Z,83.46
2022-09-30T22:42:57.812Z,82.13
2022-09-30T22:45:31.110Z,82.92
2022-09-30T22:47:59.064Z,83.04
2022-09-30T22:50:28.698Z,82.93
2022-09-30T22:52:58.020Z,82.88
2022-09-30T22:55:31.017Z,82.74
2022-09-30T22:57:59.026Z,82.86
2022-09-30T23:00:27.062Z,82.31
2022-09-30T23:02:59.043Z,81.98
2022-09-30T23:05:27.255Z,82.85
2022-09-30T23:08:19.079Z,83.50
2022-09-30T23:10:49.833Z,83.10
2022-09-30T23:13:20.199Z,82.06
2022-09-30T23:15:47.832Z,82.96
2022-09-30T23:18:18.658Z,82.62
2022-09-30T23:21:18.359Z,82.81
2022-09-30T23:23:46.497Z,82.85
2022-09-30T23:26:23.805Z,82.25
2022-09-30T23:28:52.229Z,83.18
2022-09-30T23:31:24.196Z,83.19
2022-09-30T23:33:53.358Z,82.98
2022-09-30T23:36:29.531Z,82.89
2022-09-30T23:39:06.762Z,82.98
2022-09-30T23:41:35.794Z,83.36
2022-09-30T23:44:04.365Z,83.18
2022-09-30T23:46:37.151Z,82.67
2022-09-30T23:49:05.110Z,83.05
2022-09-30T23:51:38.136Z,82.77
2022-09-30T23:54:05.339Z,82.90
2022-09-30T23:56:33.092Z,82.49
2022-09-30T23:59:01.043Z,82.81
